Time;durP1;ratioP1;P1;durP2;ratioP2;P2;SDS_P1;SDS_P2;PMS_P1;PMS_P2;Temp;Humidity;BMP_temperature;BMP_pressure;BME280_temperature;BME280_humidity;BME280_pressure;Samples;Min_cycle;Max_cycle;Signal;HPM_P1;HPM_P2
2022/01/25 00:09:19;;;;;;;;;;;20.10;36.80;;;;;;6303337;28;20315;-39
2022/01/25 00:24:13;;;;;;;;;;;20.20;36.90;;;;;;6307707;28;20709;-39
2022/01/25 00:25:59;;;;;;;;;;;20.30;37.00;;;;;;6305733;27;19932;-38
2022/01/25 00:29:06;;;;;;;;;;;20.60;36.90;;;;;;6309399;28;20042;-39
2022/01/25 00:32:07;;;;;;;;;;;20.10;36.90;;;;;;6305806;28;20846;-38
2022/01/25 00:35:10;;;;;;;;;;;19.80;36.80;;;;;;6312967;28;19993;-39
2022/01/25 00:38:11;;;;;;;;;;;20.30;37.10;;;;;;6303177;28;19931;-40
2022/01/25 00:41:13;;;;;;;;;;;19.90;36.90;;;;;;6307121;28;20034;-41
2022/01/25 00:44:15;;;;;;;;;;;20.10;36.80;;;;;;6305825;28;21389;-38
2022/01/25 00:47:17;;;;;;;;;;;20.20;37.00;;;;;;6302306;28;20045;-38
2022/01/25 00:50:19;;;;;;;;;;;20.50;37.20;;;;;;6301479;28;19942;-43
2022/01/25 00:56:38;;;;;;;;;;;19.90;36.70;;;;;;6290463;28;20086;-38
2022/01/25 00:59:40;;;;;;;;;;;20.20;37.00;;;;;;6291924;28;20585;-38
2022/01/25 01:02:42;;;;;;;;;;;19.80;36.80;;;;;;6308455;28;19928;-40
2022/01/25 01:05:45;;;;;;;;;;;19.90;37.00;;;;;;6306656;28;19939;-41
2022/01/25 01:08:50;;;;;;;;;;;19.90;37.00;;;;;;6308663;28;20014;-38
2022/01/25 01:11:57;;;;;;;;;;;20.60;37.20;;;;;;6310476;28;20822;-40
2022/01/25 01:15:07;;;;;;;;;;;20.50;37.20;;;;;;6296791;28;20759;-39
2022/01/25 01:31:14;;;;;;;;;;;20.90;37.40;;;;;;6312522;28;20686;-39
2022/01/25 01:41:01;;;;;;;;;;;19.80;36.90;;;;;;6298711;28;20567;-40
2022/01/25 01:44:04;;;;;;;;;;;20.00;37.00;;;;;;6309619;28;20512;-40
2022/01/25 01:47:09;;;;;;;;;;;20.00;37.00;;;;;;6314236;28;19928;-39
2022/01/25 01:50:14;;;;;;;;;;;19.90;36.90;;;;;;6312327;28;19975;-41
2022/01/25 01:53:16;;;;;;;;;;;19.80;37.50;;;;;;6310004;28;19927;-38
2022/01/25 01:56:18;;;;;;;;;;;19.80;36.90;;;;;;6305470;28;20440;-38
2022/01/25 01:59:19;;;;;;;;;;;20.10;37.00;;;;;;6304101;27;19932;-38
2022/01/25 02:02:21;;;;;;;;;;;20.20;37.20;;;;;;6301209;28;20082;-38
2022/01/25 02:05:23;;;;;;;;;;;20.20;37.10;;;;;;6306067;28;20053;-38
2022/01/25 02:08:24;;;;;;;;;;;19.70;37.00;;;;;;6298782;28;19982;-38
2022/01/25 02:11:26;;;;;;;;;;;19.70;36.90;;;;;;6302947;28;19941;-39
2022/01/25 02:14:28;;;;;;;;;;;20.10;37.20;;;;;;6304742;28;20220;-37
2022/01/25 02:17:52;;;;;;;;;;;20.40;37.40;;;;;;6303761;28;20474;-39
2022/01/25 02:24:08;;;;;;;;;;;20.10;37.10;;;;;;6292577;28;20100;-37
2022/01/25 02:27:09;;;;;;;;;;;20.20;37.20;;;;;;6289992;28;20050;-38
2022/01/25 02:30:11;;;;;;;;;;;20.10;37.10;;;;;;6304549;28;19932;-37
2022/01/25 02:33:13;;;;;;;;;;;20.00;36.90;;;;;;6289931;28;19975;-38
2022/01/25 02:36:22;;;;;;;;;;;19.90;37.00;;;;;;6303940;28;19928;-38
2022/01/25 02:39:23;;;;;;;;;;;20.30;36.80;;;;;;6300538;28;19982;-38
2022/01/25 02:42:25;;;;;;;;;;;19.90;37.10;;;;;;6303100;28;19991;-36
2022/01/25 02:45:35;;;;;;;;;;;19.90;36.90;;;;;;6303200;28;20026;-38
2022/01/25 02:48:46;;;;;;;;;;;20.10;36.60;;;;;;6300226;28;19932;-39
2022/01/25 02:51:48;;;;;;;;;;;19.90;37.10;;;;;;6285621;28;19993;-37
2022/01/25 02:54:50;;;;;;;;;;;19.90;37.20;;;;;;6299387;28;19974;-37
2022/01/25 02:57:52;;;;;;;;;;;20.00;37.20;;;;;;6280629;28;19932;-38
2022/01/25 03:00:53;;;;;;;;;;;19.80;37.10;;;;;;6302433;28;19928;-38
2022/01/25 03:03:55;;;;;;;;;;;20.10;37.40;;;;;;6300053;28;20624;-38
2022/01/25 03:06:57;;;;;;;;;;;19.80;37.10;;;;;;6299680;28;20046;-38
2022/01/25 03:09:59;;;;;;;;;;;20.60;37.60;;;;;;6287187;28;20705;-39
2022/01/25 03:13:00;;;;;;;;;;;19.90;37.40;;;;;;6299332;28;20469;-38
2022/01/25 03:16:03;;;;;;;;;;;19.70;37.10;;;;;;6298654;28;19932;-38
2022/01/25 03:19:28;;;;;;;;;;;20.10;37.50;;;;;;6294496;28;19927;-37
2022/01/25 03:22:44;;;;;;;;;;;19.70;37.00;;;;;;6283970;28;20060;-36
2022/01/25 03:25:47;;;;;;;;;;;19.80;37.20;;;;;;6281154;28;20378;-37
2022/01/25 03:28:50;;;;;;;;;;;19.70;37.10;;;;;;6282361;28;20697;-38
2022/01/25 03:31:51;;;;;;;;;;;19.80;37.10;;;;;;6296446;28;19931;-41
2022/01/25 03:34:52;;;;;;;;;;;20.20;37.50;;;;;;6312403;28;20014;-38
2022/01/25 03:37:54;;;;;;;;;;;19.70;37.10;;;;;;6311016;28;19971;-39
2022/01/25 03:40:56;;;;;;;;;;;19.70;37.20;;;;;;6305320;28;20301;-37
2022/01/25 03:43:57;;;;;;;;;;;20.00;37.40;;;;;;6304567;28;19963;-38
2022/01/25 03:47:04;;;;;;;;;;;19.70;37.30;;;;;;6283707;28;20361;-40
2022/01/25 03:50:05;;;;;;;;;;;20.00;37.30;;;;;;6302266;28;19971;-37
2022/01/25 03:53:08;;;;;;;;;;;19.70;37.20;;;;;;6301455;28;20361;-37
2022/01/25 03:56:09;;;;;;;;;;;19.80;37.30;;;;;;6298785;28;19927;-37
2022/01/25 03:59:11;;;;;;;;;;;19.90;37.40;;;;;;6305209;28;20410;-36
2022/01/25 04:02:12;;;;;;;;;;;20.00;37.00;;;;;;6296490;28;20208;-39
2022/01/25 04:05:21;;;;;;;;;;;20.20;37.40;;;;;;6306005;28;20731;-39
2022/01/25 04:08:23;;;;;;;;;;;20.10;37.50;;;;;;6301407;28;20343;-39
2022/01/25 04:11:24;;;;;;;;;;;19.90;37.40;;;;;;6295055;28;20018;-41
2022/01/25 04:14:26;;;;;;;;;;;19.60;37.20;;;;;;6295874;28;20399;-38
2022/01/25 04:17:27;;;;;;;;;;;19.60;37.30;;;;;;6304935;28;20335;-37
2022/01/25 04:20:33;;;;;;;;;;;19.40;37.20;;;;;;6310579;28;20625;-38
2022/01/25 04:26:48;;;;;;;;;;;19.70;37.40;;;;;;6301926;28;19974;-40
2022/01/25 04:29:49;;;;;;;;;;;19.60;37.30;;;;;;6310715;28;19998;-38
2022/01/25 04:32:57;;;;;;;;;;;19.80;37.30;;;;;;6286529;28;20044;-37
2022/01/25 04:36:23;;;;;;;;;;;20.10;37.40;;;;;;6320551;28;20003;-40
2022/01/25 04:49:13;;;;;;;;;;;19.60;37.10;;;;;;6321984;28;20036;-37
2022/01/25 04:52:18;;;;;;;;;;;19.80;37.30;;;;;;6318365;28;20054;-37
2022/01/25 04:55:26;;;;;;;;;;;20.00;37.10;;;;;;6319637;28;19938;-39
2022/01/25 04:58:36;;;;;;;;;;;19.80;37.40;;;;;;6314452;28;20589;-38
2022/01/25 05:01:39;;;;;;;;;;;19.50;37.30;;;;;;6314354;28;21342;-38
2022/01/25 05:04:45;;;;;;;;;;;19.60;37.20;;;;;;6319925;28;19938;-37
2022/01/25 05:07:55;;;;;;;;;;;20.20;37.60;;;;;;6314056;28;20022;-40
2022/01/25 05:11:04;;;;;;;;;;;19.60;37.30;;;;;;6315951;28;20046;-38
2022/01/25 05:14:18;;;;;;;;;;;20.00;37.50;;;;;;6316287;28;19931;-38
2022/01/25 05:17:29;;;;;;;;;;;19.60;37.30;;;;;;6313941;28;19931;-38
2022/01/25 05:23:47;;;;;;;;;;;19.50;37.10;;;;;;6308688;28;19928;-38
2022/01/25 05:26:48;;;;;;;;;;;19.90;37.50;;;;;;6274130;28;20636;-37
2022/01/25 05:29:50;;;;;;;;;;;19.90;37.50;;;;;;6292258;28;19936;-38
2022/01/25 05:32:51;;;;;;;;;;;19.70;37.40;;;;;;6293079;28;20058;-37
2022/01/25 05:35:53;;;;;;;;;;;19.60;37.10;;;;;;6305646;28;19927;-38
2022/01/25 05:38:57;;;;;;;;;;;19.90;37.40;;;;;;6302285;28;20613;-38
2022/01/25 05:42:14;;;;;;;;;;;19.70;37.40;;;;;;6300677;28;20528;-37
2022/01/25 05:45:25;;;;;;;;;;;20.00;37.00;;;;;;6301737;28;20135;-38
2022/01/25 05:48:27;;;;;;;;;;;19.80;37.40;;;;;;6296991;28;20192;-37
2022/01/25 05:51:29;;;;;;;;;;;19.50;37.20;;;;;;6297677;28;20022;-38
2022/01/25 05:54:30;;;;;;;;;;;19.60;36.70;;;;;;6303317;28;20039;-39
2022/01/25 05:57:32;;;;;;;;;;;19.40;37.40;;;;;;6310331;28;20046;-37
2022/01/25 06:00:34;;;;;;;;;;;19.80;37.30;;;;;;6305197;28;19932;-40
2022/01/25 06:03:36;;;;;;;;;;;19.70;37.40;;;;;;6306492;28;20000;-41
2022/01/25 06:06:37;;;;;;;;;;;19.40;37.00;;;;;;6308005;28;19973;-38
2022/01/25 06:09:40;;;;;;;;;;;20.00;37.20;;;;;;6306244;28;20739;-38
2022/01/25 06:12:44;;;;;;;;;;;19.50;37.20;;;;;;6307326;28;19982;-39
2022/01/25 06:15:46;;;;;;;;;;;19.60;37.50;;;;;;6305051;28;19941;-38
2022/01/25 06:18:47;;;;;;;;;;;19.50;37.50;;;;;;6306204;28;19931;-40
2022/01/25 06:21:48;;;;;;;;;;;20.20;37.80;;;;;;6310099;28;20049;-39
2022/01/25 06:24:50;;;;;;;;;;;19.90;37.60;;;;;;6301820;28;19967;-39
2022/01/25 06:27:51;;;;;;;;;;;19.30;37.40;;;;;;6290858;28;20034;-37
2022/01/25 06:30:53;;;;;;;;;;;19.30;37.30;;;;;;6296927;28;20741;-38
2022/01/25 06:33:54;;;;;;;;;;;19.40;37.40;;;;;;6308238;28;20669;-43
2022/01/25 06:36:56;;;;;;;;;;;19.50;37.50;;;;;;6307153;28;19941;-40
2022/01/25 06:39:58;;;;;;;;;;;19.10;37.10;;;;;;6304265;28;20743;-41
2022/01/25 06:43:00;;;;;;;;;;;19.40;37.00;;;;;;6299592;28;20054;-42
2022/01/25 06:46:03;;;;;;;;;;;19.60;37.40;;;;;;6300287;28;19976;-41
2022/01/25 06:49:04;;;;;;;;;;;19.50;37.40;;;;;;6300309;28;19938;-40
2022/01/25 06:52:06;;;;;;;;;;;19.40;37.40;;;;;;6300256;28;20046;-43
2022/01/25 06:55:09;;;;;;;;;;;19.80;36.60;;;;;;6301603;28;20947;-44
2022/01/25 06:58:11;;;;;;;;;;;19.60;37.10;;;;;;6299743;28;20766;-42
2022/01/25 07:01:13;;;;;;;;;;;19.80;37.10;;;;;;6298743;27;19967;-42
2022/01/25 07:04:14;;;;;;;;;;;20.00;37.10;;;;;;6298897;28;19927;-38
2022/01/25 07:07:16;;;;;;;;;;;19.80;36.50;;;;;;6295744;27;19940;-38
2022/01/25 07:10:17;;;;;;;;;;;20.60;37.50;;;;;;6291957;28;20015;-39
2022/01/25 07:13:19;;;;;;;;;;;20.20;36.90;;;;;;6290319;28;20051;-41
2022/01/25 07:16:21;;;;;;;;;;;19.80;36.80;;;;;;6288317;28;19938;-38
2022/01/25 07:19:22;;;;;;;;;;;19.80;36.70;;;;;;6288256;28;19938;-41
2022/01/25 07:22:23;;;;;;;;;;;20.20;36.90;;;;;;6259424;28;21554;-39
2022/01/25 07:25:26;;;;;;;;;;;20.00;36.50;;;;;;6278981;28;20049;-40
2022/01/25 07:28:29;;;;;;;;;;;20.00;36.60;;;;;;6277741;28;20809;-39
2022/01/25 07:31:30;;;;;;;;;;;19.90;36.20;;;;;;6272810;28;20062;-40
2022/01/25 07:34:33;;;;;;;;;;;20.10;36.40;;;;;;6276808;28;19939;-41
2022/01/25 07:37:36;;;;;;;;;;;20.10;36.30;;;;;;6266546;28;20796;-39
2022/01/25 07:40:38;;;;;;;;;;;21.00;36.90;;;;;;6254114;28;19943;-38
2022/01/25 07:43:40;;;;;;;;;;;20.10;36.40;;;;;;6246703;28;21386;-42
2022/01/25 07:46:42;;;;;;;;;;;20.00;36.20;;;;;;6254734;28;19936;-40
2022/01/25 07:49:44;;;;;;;;;;;20.60;36.60;;;;;;6254601;28;20957;-42
2022/01/25 07:52:48;;;;;;;;;;;20.10;36.20;;;;;;6249294;28;19934;-42
2022/01/25 07:55:49;;;;;;;;;;;20.30;36.30;;;;;;6245640;27;20953;-41
2022/01/25 07:58:52;;;;;;;;;;;20.70;36.30;;;;;;6221451;28;19932;-41
2022/01/25 08:01:54;;;;;;;;;;;20.50;36.10;;;;;;6226538;28;19973;-44
2022/01/25 08:05:21;;;;;;;;;;;20.70;36.10;;;;;;6205984;28;20922;-47
2022/01/25 08:08:37;;;;;;;;;;;20.90;34.30;;;;;;6203642;28;19938;-42
2022/01/25 08:11:40;;;;;;;;;;;20.90;36.30;;;;;;6199687;28;19932;-42
2022/01/25 08:14:44;;;;;;;;;;;20.30;35.70;;;;;;6201256;27;19932;-44
2022/01/25 08:17:46;;;;;;;;;;;20.30;35.70;;;;;;6205046;28;20006;-42
2022/01/25 08:20:52;;;;;;;;;;;20.30;35.70;;;;;;6228596;28;21156;-43
2022/01/25 08:24:05;;;;;;;;;;;20.80;36.00;;;;;;6239083;28;22335;-44
2022/01/25 08:27:07;;;;;;;;;;;20.90;35.90;;;;;;6220200;28;19939;-45
2022/01/25 08:30:12;;;;;;;;;;;21.00;36.00;;;;;;6220852;27;20153;-46
2022/01/25 08:33:27;;;;;;;;;;;20.50;35.30;;;;;;6214126;28;19932;-44
2022/01/25 08:36:35;;;;;;;;;;;20.70;35.60;;;;;;6200638;28;19946;-45
2022/01/25 08:39:37;;;;;;;;;;;21.10;35.70;;;;;;6193963;28;20001;-49
2022/01/25 08:42:39;;;;;;;;;;;20.80;35.70;;;;;;6197421;28;19932;-44
2022/01/25 08:45:56;;;;;;;;;;;21.10;35.70;;;;;;6209509;28;24882;-46
2022/01/25 08:49:06;;;;;;;;;;;21.20;35.60;;;;;;6219718;28;19932;-42
2022/01/25 08:52:09;;;;;;;;;;;21.40;35.70;;;;;;6226126;28;21733;-44
2022/01/25 08:55:12;;;;;;;;;;;21.20;35.00;;;;;;6229859;28;19932;-44
2022/01/25 08:58:18;;;;;;;;;;;21.20;35.40;;;;;;6203214;28;21829;-44
2022/01/25 09:01:20;;;;;;;;;;;21.30;35.50;;;;;;6203840;28;20841;-44
2022/01/25 09:04:22;;;;;;;;;;;21.10;35.30;;;;;;6195296;28;21271;-44
2022/01/25 09:07:23;;;;;;;;;;;22.00;36.00;;;;;;6206307;28;19938;-44
2022/01/25 09:10:24;;;;;;;;;;;21.30;35.20;;;;;;6191217;28;19932;-45
2022/01/25 09:13:26;;;;;;;;;;;20.90;35.10;;;;;;6203622;28;19932;-45
2022/01/25 09:16:28;;;;;;;;;;;21.20;35.20;;;;;;6184053;28;21700;-46
2022/01/25 09:19:29;;;;;;;;;;;21.50;35.40;;;;;;6181396;28;20077;-46
2022/01/25 09:22:31;;;;;;;;;;;21.20;35.10;;;;;;6200220;28;19931;-43
2022/01/25 09:25:52;;;;;;;;;;;21.00;35.10;;;;;;6168198;28;20667;-43
2022/01/25 09:28:55;;;;;;;;;;;21.50;35.30;;;;;;6179049;28;21320;-42
2022/01/25 09:31:57;;;;;;;;;;;21.50;35.10;;;;;;6194405;28;19931;-43
2022/01/25 09:34:58;;;;;;;;;;;21.20;35.00;;;;;;6191081;28;20058;-42
2022/01/25 09:38:00;;;;;;;;;;;21.80;35.30;;;;;;6196413;28;20055;-41
2022/01/25 09:41:02;;;;;;;;;;;21.10;34.90;;;;;;6183939;28;28355;-44
2022/01/25 09:44:04;;;;;;;;;;;21.20;34.70;;;;;;6184802;28;20077;-42
2022/01/25 09:47:07;;;;;;;;;;;21.20;34.70;;;;;;6200714;28;20058;-42
2022/01/25 09:50:10;;;;;;;;;;;21.00;34.60;;;;;;6210979;28;21032;-44
2022/01/25 09:53:11;;;;;;;;;;;21.80;35.20;;;;;;6212256;28;19939;-41
2022/01/25 09:56:12;;;;;;;;;;;22.00;35.10;;;;;;6199912;28;21030;-42
2022/01/25 09:59:15;;;;;;;;;;;21.40;34.80;;;;;;6220199;28;19931;-41
2022/01/25 10:02:34;;;;;;;;;;;21.40;34.70;;;;;;6187909;28;19936;-43
2022/01/25 10:05:38;;;;;;;;;;;21.80;35.00;;;;;;6165862;28;21813;-43
2022/01/25 10:08:39;;;;;;;;;;;21.40;34.70;;;;;;6178687;28;19970;-41
2022/01/25 10:11:41;;;;;;;;;;;21.80;34.90;;;;;;6186576;28;21008;-42
2022/01/25 10:14:52;;;;;;;;;;;22.00;35.00;;;;;;6204438;28;19931;-42
2022/01/25 10:17:53;;;;;;;;;;;21.80;34.90;;;;;;6184117;28;21784;-43
2022/01/25 10:20:55;;;;;;;;;;;21.40;34.70;;;;;;6196001;28;19976;-41
2022/01/25 10:23:59;;;;;;;;;;;21.70;34.90;;;;;;6218511;28;20141;-42
2022/01/25 10:27:01;;;;;;;;;;;21.50;34.50;;;;;;6216987;28;19932;-43
2022/01/25 10:30:09;;;;;;;;;;;21.80;34.70;;;;;;6178156;28;21242;-41
2022/01/25 10:33:20;;;;;;;;;;;22.20;34.70;;;;;;6196430;28;19970;-42
2022/01/25 10:36:23;;;;;;;;;;;22.00;34.60;;;;;;6183621;28;19938;-41
2022/01/25 10:39:26;;;;;;;;;;;21.90;34.70;;;;;;6155134;28;24310;-43
2022/01/25 10:42:29;;;;;;;;;;;21.90;34.50;;;;;;6173893;28;20713;-41
2022/01/25 10:45:30;;;;;;;;;;;21.90;34.50;;;;;;6207227;28;19938;-43
2022/01/25 10:48:32;;;;;;;;;;;21.90;34.80;;;;;;6184091;28;28191;-46
2022/01/25 10:51:35;;;;;;;;;;;22.10;34.70;;;;;;6183751;28;20016;-42
2022/01/25 10:54:38;;;;;;;;;;;21.70;34.50;;;;;;6209155;28;19932;-45
2022/01/25 10:57:40;;;;;;;;;;;21.70;34.40;;;;;;6200178;28;19934;-42
2022/01/25 11:00:59;;;;;;;;;;;21.80;34.60;;;;;;6214090;28;20010;-41
2022/01/25 11:04:05;;;;;;;;;;;22.00;34.60;;;;;;6206266;28;19932;-44
2022/01/25 11:07:09;;;;;;;;;;;22.10;34.70;;;;;;6187746;28;20725;-42
2022/01/25 11:10:14;;;;;;;;;;;22.10;34.70;;;;;;6157135;28;19936;-43
2022/01/25 11:13:33;;;;;;;;;;;22.20;34.70;;;;;;6184924;28;19932;-39
2022/01/25 11:16:35;;;;;;;;;;;22.10;34.90;;;;;;6218346;28;20022;-42
2022/01/25 11:19:36;;;;;;;;;;;21.90;34.60;;;;;;6216851;28;20001;-40
2022/01/25 11:22:38;;;;;;;;;;;21.70;34.30;;;;;;6201609;28;21175;-39
2022/01/25 11:25:40;;;;;;;;;;;22.40;34.60;;;;;;6219362;28;19931;-39
2022/01/25 11:28:42;;;;;;;;;;;22.40;34.60;;;;;;6203737;28;21589;-39
2022/01/25 11:31:47;;;;;;;;;;;21.80;34.30;;;;;;6206498;28;19932;-39
2022/01/25 11:34:50;;;;;;;;;;;21.80;34.10;;;;;;6193753;28;20021;-41
2022/01/25 11:37:53;;;;;;;;;;;21.80;34.30;;;;;;6210331;28;21279;-41
2022/01/25 11:40:55;;;;;;;;;;;22.20;35.20;;;;;;6211312;28;19939;-40
2022/01/25 11:44:05;;;;;;;;;;;22.00;34.40;;;;;;6249481;28;20993;-38
2022/01/25 11:47:10;;;;;;;;;;;21.60;34.00;;;;;;6233134;28;20128;-40
2022/01/25 11:50:12;;;;;;;;;;;21.90;34.50;;;;;;6232783;28;19932;-39
2022/01/25 11:53:15;;;;;;;;;;;22.50;34.70;;;;;;6241917;28;20043;-39
2022/01/25 11:56:18;;;;;;;;;;;22.10;34.40;;;;;;6261703;28;20096;-39
2022/01/25 11:59:19;;;;;;;;;;;22.10;34.40;;;;;;6262189;28;19978;-46
2022/01/25 12:02:35;;;;;;;;;;;22.00;34.50;;;;;;6253950;28;19939;-45
2022/01/25 12:05:52;;;;;;;;;;;21.80;34.30;;;;;;6243991;28;19932;-42
2022/01/25 12:09:14;;;;;;;;;;;21.90;34.40;;;;;;6259855;28;19931;-45
2022/01/25 12:12:17;;;;;;;;;;;21.90;34.30;;;;;;6258691;28;19963;-46
2022/01/25 12:15:22;;;;;;;;;;;22.20;34.40;;;;;;6261595;28;20038;-43
2022/01/25 12:18:38;;;;;;;;;;;22.50;34.60;;;;;;6236396;28;20032;-42
2022/01/25 12:21:54;;;;;;;;;;;22.00;34.30;;;;;;6232798;28;20767;-42
2022/01/25 12:25:05;;;;;;;;;;;21.90;34.30;;;;;;6249028;28;20057;-42
2022/01/25 12:28:21;;;;;;;;;;;22.20;34.40;;;;;;6228664;28;20881;-40
2022/01/25 12:31:25;;;;;;;;;;;22.20;34.10;;;;;;6218767;28;19938;-41
2022/01/25 12:34:27;;;;;;;;;;;22.50;34.50;;;;;;6221959;28;19965;-41
2022/01/25 12:37:43;;;;;;;;;;;21.80;34.20;;;;;;6222193;28;20017;-41
2022/01/25 12:40:56;;;;;;;;;;;22.10;34.20;;;;;;6213122;28;19932;-42
2022/01/25 12:43:59;;;;;;;;;;;22.30;34.40;;;;;;6235414;28;19967;-42
2022/01/25 12:47:04;;;;;;;;;;;22.00;34.30;;;;;;6209019;28;20075;-42
2022/01/25 12:50:07;;;;;;;;;;;21.90;34.20;;;;;;6212191;28;21215;-40
2022/01/25 12:53:10;;;;;;;;;;;22.10;34.30;;;;;;6231488;28;19932;-40
2022/01/25 12:56:14;;;;;;;;;;;21.90;34.30;;;;;;6207549;28;19935;-56
2022/01/25 12:59:17;;;;;;;;;;;21.90;34.40;;;;;;6199930;28;19932;-43
2022/01/25 13:02:20;;;;;;;;;;;22.40;34.60;;;;;;6163078;28;21888;-43
2022/01/25 13:05:24;;;;;;;;;;;21.90;34.20;;;;;;6201912;28;19946;-46
2022/01/25 13:08:28;;;;;;;;;;;21.90;34.40;;;;;;6176847;28;19982;-43
2022/01/25 13:11:41;;;;;;;;;;;22.00;34.20;;;;;;6196885;28;20903;-40
2022/01/25 13:14:49;;;;;;;;;;;22.30;34.30;;;;;;6201397;28;19989;-43
2022/01/25 13:17:50;;;;;;;;;;;21.90;34.10;;;;;;6205737;28;19932;-43
2022/01/25 13:21:02;;;;;;;;;;;22.30;34.60;;;;;;6201498;28;19938;-43
2022/01/25 13:24:06;;;;;;;;;;;22.20;34.20;;;;;;6207714;28;21357;-40
2022/01/25 13:27:11;;;;;;;;;;;22.30;34.20;;;;;;6218299;28;19932;-40
2022/01/25 13:33:31;;;;;;;;;;;22.00;34.00;;;;;;6184126;28;19937;-43
2022/01/25 13:36:33;;;;;;;;;;;22.30;34.40;;;;;;6195870;28;19974;-42
2022/01/25 13:39:36;;;;;;;;;;;22.50;34.40;;;;;;6220033;28;20012;-43
2022/01/25 13:42:43;;;;;;;;;;;22.40;34.40;;;;;;6184910;28;19948;-45
2022/01/25 13:45:49;;;;;;;;;;;22.40;34.20;;;;;;6209205;28;20006;-41
2022/01/25 13:48:53;;;;;;;;;;;21.70;33.80;;;;;;6211296;28;19931;-45
2022/01/25 13:51:57;;;;;;;;;;;22.30;34.10;;;;;;6200506;28;21463;-44
2022/01/25 13:55:07;;;;;;;;;;;22.10;34.60;;;;;;6210308;28;19935;-42
2022/01/25 13:58:18;;;;;;;;;;;22.50;34.10;;;;;;6224089;28;20030;-43
2022/01/25 14:01:22;;;;;;;;;;;21.90;33.80;;;;;;6206454;28;19993;-43
2022/01/25 14:04:27;;;;;;;;;;;22.50;34.20;;;;;;6202428;28;21309;-41
2022/01/25 14:07:34;;;;;;;;;;;22.50;34.30;;;;;;6181012;28;19931;-41
2022/01/25 14:10:36;;;;;;;;;;;22.10;34.00;;;;;;6199250;28;19931;-44
2022/01/25 14:23:29;;;;;;;;;;;22.00;33.90;;;;;;6194976;28;19935;-45
2022/01/25 14:26:36;;;;;;;;;;;22.40;34.10;;;;;;6168377;28;19993;-44
2022/01/25 14:29:39;;;;;;;;;;;22.00;33.70;;;;;;6220777;28;19939;-43
2022/01/25 14:32:41;;;;;;;;;;;22.60;34.10;;;;;;6202736;28;20014;-45
2022/01/25 14:35:44;;;;;;;;;;;22.20;34.00;;;;;;6203969;28;19931;-43
2022/01/25 14:38:45;;;;;;;;;;;22.50;34.00;;;;;;6190212;28;19943;-43
2022/01/25 14:41:47;;;;;;;;;;;22.90;34.30;;;;;;6195326;28;19932;-42
2022/01/25 14:44:50;;;;;;;;;;;22.20;33.80;;;;;;6183215;28;20793;-44
2022/01/25 14:47:53;;;;;;;;;;;22.50;34.10;;;;;;6201630;28;19967;-45
2022/01/25 14:50:57;;;;;;;;;;;22.20;33.90;;;;;;6177648;28;20021;-43
2022/01/25 14:53:59;;;;;;;;;;;22.40;33.90;;;;;;6205973;28;20025;-42
2022/01/25 14:57:05;;;;;;;;;;;22.30;33.90;;;;;;6174474;28;19938;-43
2022/01/25 15:00:07;;;;;;;;;;;22.30;33.70;;;;;;6195691;28;19932;-43
2022/01/25 15:03:09;;;;;;;;;;;22.40;33.90;;;;;;6172618;28;19932;-45
2022/01/25 15:06:11;;;;;;;;;;;22.70;34.00;;;;;;6192069;28;19932;-42
2022/01/25 15:09:14;;;;;;;;;;;22.20;33.90;;;;;;6189223;28;20153;-46
2022/01/25 15:12:16;;;;;;;;;;;22.60;34.00;;;;;;6195584;28;20902;-44
2022/01/25 15:15:24;;;;;;;;;;;22.40;33.80;;;;;;6176253;28;20892;-43
2022/01/25 15:18:27;;;;;;;;;;;22.40;33.90;;;;;;6202858;28;20921;-43
2022/01/25 15:21:29;;;;;;;;;;;22.30;33.90;;;;;;6206514;28;19940;-44
2022/01/25 15:24:30;;;;;;;;;;;22.10;33.90;;;;;;6209104;28;20625;-44
2022/01/25 15:27:32;;;;;;;;;;;22.30;34.00;;;;;;6206583;28;19940;-43
2022/01/25 15:30:34;;;;;;;;;;;22.90;34.20;;;;;;6219140;28;21277;-43
2022/01/25 15:33:36;;;;;;;;;;;22.70;34.20;;;;;;6214967;28;19967;-44
2022/01/25 15:36:37;;;;;;;;;;;22.20;33.80;;;;;;6201087;28;20060;-43
2022/01/25 15:39:39;;;;;;;;;;;22.70;34.10;;;;;;6215585;28;19932;-42
2022/01/25 15:42:41;;;;;;;;;;;22.30;33.90;;;;;;6175335;28;20094;-43
2022/01/25 15:45:56;;;;;;;;;;;22.20;33.90;;;;;;6214776;28;19932;-44
2022/01/25 15:48:59;;;;;;;;;;;22.70;34.10;;;;;;6222427;28;20046;-42
2022/01/25 15:52:00;;;;;;;;;;;22.30;34.00;;;;;;6207530;28;19931;-46
2022/01/25 15:55:02;;;;;;;;;;;22.70;34.10;;;;;;6225235;28;19931;-42
2022/01/25 15:58:05;;;;;;;;;;;22.30;33.80;;;;;;6195408;28;19931;-43
2022/01/25 16:01:10;;;;;;;;;;;22.40;34.10;;;;;;6196198;28;19978;-41
2022/01/25 16:04:12;;;;;;;;;;;22.50;34.00;;;;;;6211383;28;21018;-43
2022/01/25 16:07:14;;;;;;;;;;;22.30;33.90;;;;;;6202031;28;19937;-43
2022/01/25 16:10:17;;;;;;;;;;;22.60;34.10;;;;;;6180702;28;19935;-43
2022/01/25 16:13:18;;;;;;;;;;;22.50;34.10;;;;;;6210729;28;20054;-42
2022/01/25 16:16:20;;;;;;;;;;;22.30;34.00;;;;;;6209069;28;20348;-42
2022/01/25 16:19:22;;;;;;;;;;;22.60;34.10;;;;;;6208113;28;20003;-43
2022/01/25 16:22:24;;;;;;;;;;;22.60;34.00;;;;;;6214808;28;20647;-43
2022/01/25 16:25:25;;;;;;;;;;;22.30;34.00;;;;;;6219104;28;21516;-42
2022/01/25 16:28:27;;;;;;;;;;;23.10;34.30;;;;;;6209931;28;22324;-44
2022/01/25 16:31:29;;;;;;;;;;;22.20;33.90;;;;;;6227927;28;19938;-43
2022/01/25 16:34:32;;;;;;;;;;;22.60;34.10;;;;;;6224528;27;20024;-43
2022/01/25 16:37:33;;;;;;;;;;;22.50;34.00;;;;;;6219378;28;19932;-43
2022/01/25 16:40:35;;;;;;;;;;;22.70;34.20;;;;;;6203188;28;19966;-43
2022/01/25 16:43:37;;;;;;;;;;;22.20;33.90;;;;;;6205804;28;20395;-44
2022/01/25 16:46:38;;;;;;;;;;;22.50;34.70;;;;;;6192008;28;20601;-44
2022/01/25 16:49:41;;;;;;;;;;;22.30;34.00;;;;;;6186457;28;19996;-45
2022/01/25 16:52:43;;;;;;;;;;;22.40;34.00;;;;;;6198183;28;19938;-44
2022/01/25 16:55:44;;;;;;;;;;;22.50;34.30;;;;;;6217670;28;20010;-42
2022/01/25 16:58:56;;;;;;;;;;;22.30;34.00;;;;;;6202684;28;19939;-44
2022/01/25 17:01:57;;;;;;;;;;;22.20;34.00;;;;;;6209244;28;20101;-44
2022/01/25 17:05:00;;;;;;;;;;;22.50;34.10;;;;;;6222410;28;19939;-43
2022/01/25 17:08:01;;;;;;;;;;;22.20;33.90;;;;;;6225731;28;20960;-42
2022/01/25 17:11:03;;;;;;;;;;;22.60;34.10;;;;;;6234434;28;20938;-43
2022/01/25 17:14:04;;;;;;;;;;;22.00;33.80;;;;;;6260733;28;20625;-42
2022/01/25 17:17:06;;;;;;;;;;;22.90;34.30;;;;;;6253688;28;19924;-41
2022/01/25 17:20:08;;;;;;;;;;;22.60;34.00;;;;;;6261231;28;21203;-44
2022/01/25 17:23:10;;;;;;;;;;;22.30;33.90;;;;;;6270097;28;21054;-44
2022/01/25 17:26:11;;;;;;;;;;;22.20;34.00;;;;;;6273195;28;20581;-43
2022/01/25 17:29:12;;;;;;;;;;;22.50;34.20;;;;;;6257715;28;19932;-47
2022/01/25 17:32:14;;;;;;;;;;;22.20;34.00;;;;;;6270330;28;19982;-43
2022/01/25 17:35:16;;;;;;;;;;;22.40;34.20;;;;;;6275395;28;19941;-42
2022/01/25 17:38:17;;;;;;;;;;;22.50;34.30;;;;;;6279064;28;20010;-43
2022/01/25 17:41:18;;;;;;;;;;;22.60;34.30;;;;;;6280756;28;20746;-45
2022/01/25 17:44:20;;;;;;;;;;;23.00;34.60;;;;;;6277461;28;20061;-41
2022/01/25 17:47:21;;;;;;;;;;;22.20;34.20;;;;;;6271085;28;19932;-44
2022/01/25 17:50:23;;;;;;;;;;;22.30;34.20;;;;;;6272268;28;19932;-46
2022/01/25 17:53:25;;;;;;;;;;;22.50;34.30;;;;;;6261944;28;21104;-43
2022/01/25 17:56:26;;;;;;;;;;;22.50;34.40;;;;;;6272666;28;20688;-42
2022/01/25 17:59:27;;;;;;;;;;;22.40;34.30;;;;;;6280474;28;20013;-43
2022/01/25 18:02:31;;;;;;;;;;;22.10;34.20;;;;;;6269047;28;20033;-42
2022/01/25 18:05:34;;;;;;;;;;;22.30;34.40;;;;;;6277425;28;19971;-42
2022/01/25 18:08:36;;;;;;;;;;;21.90;34.00;;;;;;6263441;28;19932;-42
2022/01/25 18:11:40;;;;;;;;;;;22.40;34.20;;;;;;6270308;28;19966;-42
2022/01/25 18:14:42;;;;;;;;;;;22.00;34.00;;;;;;6251259;28;20042;-41
2022/01/25 18:17:43;;;;;;;;;;;22.40;34.30;;;;;;6267089;28;20039;-42
2022/01/25 18:20:46;;;;;;;;;;;22.50;34.30;;;;;;6285990;28;20116;-41
2022/01/25 18:23:50;;;;;;;;;;;22.30;34.30;;;;;;6261025;28;24105;-42
2022/01/25 18:26:52;;;;;;;;;;;22.30;34.50;;;;;;6281253;28;19931;-41
2022/01/25 18:29:54;;;;;;;;;;;22.30;34.50;;;;;;6281121;28;21027;-40
2022/01/25 18:32:55;;;;;;;;;;;22.50;34.50;;;;;;6279233;28;20050;-45
2022/01/25 18:35:57;;;;;;;;;;;21.80;34.40;;;;;;6283904;28;19939;-41
2022/01/25 18:39:00;;;;;;;;;;;21.80;34.40;;;;;;6284104;28;19932;-42
2022/01/25 18:42:01;;;;;;;;;;;21.80;34.40;;;;;;6289404;28;19934;-40
2022/01/25 18:45:03;;;;;;;;;;;22.10;34.70;;;;;;6273122;28;20251;-41
2022/01/25 18:48:05;;;;;;;;;;;21.70;34.50;;;;;;6278311;28;19938;-41
2022/01/25 18:51:07;;;;;;;;;;;22.20;34.80;;;;;;6253485;28;20223;-40
2022/01/25 18:54:10;;;;;;;;;;;22.30;35.00;;;;;;6268573;28;19938;-41
2022/01/25 18:57:11;;;;;;;;;;;21.70;34.60;;;;;;6270719;28;19934;-40
2022/01/25 19:00:15;;;;;;;;;;;22.00;34.90;;;;;;6272862;28;20175;-39
2022/01/25 19:03:16;;;;;;;;;;;21.60;34.80;;;;;;6276959;28;19932;-42